PWSweather.com
Personal Weather Stations
Station Observations
KVAGLENALL
West Henrico, Glen Allen, VA 23060-6503

West HenricoGlen Allen, VA 23060-6503

Lat: 37.6554, Lon: -77.5693

Elevation: 273

Station Type: Davis Vantage Pro II

www.glenallenweather.com

High Low Average
Temperature 71.1°F21.7°C 51.2°F10.7°C 61.8°F16.6°C
Dew Point 55.1°F12.8°C 47.0°F8.3°C 51.3°F10.7°C
Winds 16.0 mph 25.7 kmh 0.1 mph 0.2 kmh 3.0 mph SSE4.8 kmh SSE
Wind Gusts 20.2 mph32.5 kmh 0.1 mph0.2 kmh 7.0 mph11.3 kmh
Humidity 95% 48% 71%
Pressure 30.28 in1025.4 mb 30.09 in1019.0 mb -
Precipitation 0.00 in0.0 mm - -
Hour Temp Dew Point Humidity Winds Wind Gusts Pressure Precip Precip Rate Daily Precip Total
12:00 AM 57.9°F14.4°C 53.7°F12.1°C 86% 0.1 mph SSW0.2 kmh SSW 0.1 mph0.2 kmh 30.10 in1019.3 mb 0.00 in0.0 mm 0.00 in0.0 mm 0.00 in0.0 mm
12:15 AM 57.6°F14.2°C 53.4°F11.9°C 86% 0.1 mph SSW0.2 kmh SSW 0.1 mph0.2 kmh 30.10 in1019.3 mb 0.00 in0.0 mm 0.00 in0.0 mm 0.00 in0.0 mm
12:30 AM 57.2°F14.0°C 53.4°F11.9°C 87% 0.1 mph SSW0.2 kmh SSW 0.1 mph0.2 kmh 30.10 in1019.3 mb 0.00 in0.0 mm 0.00 in0.0 mm 0.00 in0.0 mm
12:45 AM 56.8°F13.8°C 53.3°F11.8°C 88% 0.1 mph SSW0.2 kmh SSW 0.1 mph0.2 kmh 30.10 in1019.3 mb 0.00 in0.0 mm 0.00 in0.0 mm 0.00 in0.0 mm
01:00 AM 56.6°F13.7°C 53.4°F11.9°C 89% 0.1 mph SSW0.2 kmh SSW 0.1 mph0.2 kmh 30.10 in1019.3 mb 0.00 in0.0 mm 0.00 in0.0 mm 0.00 in0.0 mm
01:15 AM 56.3°F13.5°C 53.1°F11.7°C 89% 0.1 mph SSW0.2 kmh SSW 0.1 mph0.2 kmh 30.10 in1019.3 mb 0.00 in0.0 mm 0.00 in0.0 mm 0.00 in0.0 mm
01:30 AM 56.1°F13.4°C 53.2°F11.8°C 90% 0.1 mph SSW0.2 kmh SSW 0.1 mph0.2 kmh 30.10 in1019.3 mb 0.00 in0.0 mm 0.00 in0.0 mm 0.00 in0.0 mm
01:45 AM 56.2°F13.4°C 53.6°F12.0°C 91% 0.1 mph SSW0.2 kmh SSW 0.1 mph0.2 kmh 30.10 in1019.3 mb 0.00 in0.0 mm 0.00 in0.0 mm 0.00 in0.0 mm
02:00 AM 56.1°F13.4°C 53.8°F12.1°C 92% 0.1 mph SSW0.2 kmh SSW 0.1 mph0.2 kmh 30.10 in1019.3 mb 0.00 in0.0 mm 0.00 in0.0 mm 0.00 in0.0 mm
02:15 AM 55.8°F13.2°C 53.8°F12.1°C 93% 0.1 mph SSW0.2 kmh SSW 0.1 mph0.2 kmh 30.10 in1019.3 mb 0.00 in0.0 mm 0.00 in0.0 mm 0.00 in0.0 mm
02:30 AM 55.8°F13.2°C 53.8°F12.1°C 93% 1.0 mph SSW1.6 kmh SSW 1.1 mph1.8 kmh 30.10 in1019.3 mb 0.00 in0.0 mm 0.00 in0.0 mm 0.00 in0.0 mm
02:45 AM 55.6°F13.1°C 53.6°F12.0°C 93% 0.1 mph S0.2 kmh S 0.1 mph0.2 kmh 30.09 in1019.0 mb 0.00 in0.0 mm 0.00 in0.0 mm 0.00 in0.0 mm
03:00 AM 55.7°F13.2°C 53.7°F12.1°C 93% 0.1 mph S0.2 kmh S 0.1 mph0.2 kmh 30.09 in1019.0 mb 0.00 in0.0 mm 0.00 in0.0 mm 0.00 in0.0 mm
03:15 AM 56.1°F13.4°C 54.4°F12.4°C 94% 4.1 mph NNW6.6 kmh NNW 11.2 mph18.0 kmh 30.11 in1019.6 mb 0.00 in0.0 mm 0.00 in0.0 mm 0.00 in0.0 mm
03:30 AM 56.6°F13.7°C 54.0°F12.2°C 91% 1.0 mph N1.6 kmh N 5.1 mph8.2 kmh 30.11 in1019.6 mb 0.00 in0.0 mm 0.00 in0.0 mm 0.00 in0.0 mm
03:45 AM 56.4°F13.6°C 53.5°F11.9°C 90% 1.0 mph NNW1.6 kmh NNW 6.1 mph9.8 kmh 30.12 in1020.0 mb 0.00 in0.0 mm 0.00 in0.0 mm 0.00 in0.0 mm
04:00 AM 56.5°F13.6°C 53.3°F11.8°C 89% 5.1 mph NNW8.2 kmh NNW 5.1 mph8.2 kmh 30.12 in1020.0 mb 0.00 in0.0 mm 0.00 in0.0 mm 0.00 in0.0 mm
04:15 AM 56.0°F13.3°C 52.8°F11.6°C 89% 3.0 mph NNW4.8 kmh NNW 4.1 mph6.6 kmh 30.12 in1020.0 mb 0.00 in0.0 mm 0.00 in0.0 mm 0.00 in0.0 mm
04:30 AM 55.9°F13.3°C 52.7°F11.5°C 89% 0.1 mph N0.2 kmh N 1.1 mph1.8 kmh 30.12 in1020.0 mb 0.00 in0.0 mm 0.00 in0.0 mm 0.00 in0.0 mm
04:45 AM 55.0°F12.8°C 51.8°F11.0°C 89% 1.0 mph NNW1.6 kmh NNW 2.1 mph3.4 kmh 30.13 in1020.3 mb 0.00 in0.0 mm 0.00 in0.0 mm 0.00 in0.0 mm
05:00 AM 54.2°F12.3°C 51.3°F10.7°C 90% 0.1 mph NNW0.2 kmh NNW 1.1 mph1.8 kmh 30.13 in1020.3 mb 0.00 in0.0 mm 0.00 in0.0 mm 0.00 in0.0 mm
05:15 AM 53.9°F12.2°C 51.3°F10.7°C 91% 0.1 mph NNW0.2 kmh NNW 0.1 mph0.2 kmh 30.13 in1020.3 mb 0.00 in0.0 mm 0.00 in0.0 mm 0.00 in0.0 mm
05:30 AM 53.4°F11.9°C 51.1°F10.6°C 92% 1.0 mph NNE1.6 kmh NNE 1.1 mph1.8 kmh 30.14 in1020.7 mb 0.00 in0.0 mm 0.00 in0.0 mm 0.00 in0.0 mm
05:45 AM 53.1°F11.7°C 50.8°F10.4°C 92% 0.1 mph NNE0.2 kmh NNE 0.1 mph0.2 kmh 30.14 in1020.7 mb 0.00 in0.0 mm 0.00 in0.0 mm 0.00 in0.0 mm
06:00 AM 52.8°F11.6°C 50.8°F10.4°C 93% 0.1 mph NNE0.2 kmh NNE 0.1 mph0.2 kmh 30.15 in1021.0 mb 0.00 in0.0 mm 0.00 in0.0 mm 0.00 in0.0 mm
06:15 AM 53.1°F11.7°C 51.4°F10.8°C 94% 0.1 mph NNE0.2 kmh NNE 1.1 mph1.8 kmh 30.15 in1021.0 mb 0.00 in0.0 mm 0.00 in0.0 mm 0.00 in0.0 mm
06:30 AM 52.8°F11.6°C 51.1°F10.6°C 94% 0.1 mph NNE0.2 kmh NNE 0.1 mph0.2 kmh 30.16 in1021.3 mb 0.00 in0.0 mm 0.00 in0.0 mm 0.00 in0.0 mm
06:45 AM 52.3°F11.3°C 50.9°F10.5°C 95% 0.1 mph NNE0.2 kmh NNE 0.1 mph0.2 kmh 30.16 in1021.3 mb 0.00 in0.0 mm 0.00 in0.0 mm 0.00 in0.0 mm
07:00 AM 51.9°F11.1°C 50.2°F10.1°C 94% 0.1 mph NNE0.2 kmh NNE 0.1 mph0.2 kmh 30.17 in1021.7 mb 0.00 in0.0 mm 0.00 in0.0 mm 0.00 in0.0 mm
07:15 AM 51.5°F10.8°C 50.1°F10.1°C 95% 1.0 mph NNE1.6 kmh NNE 1.1 mph1.8 kmh 30.18 in1022.0 mb 0.00 in0.0 mm 0.00 in0.0 mm 0.00 in0.0 mm
07:30 AM 51.2°F10.7°C 49.8°F9.9°C 95% 0.1 mph NNE0.2 kmh NNE 0.1 mph0.2 kmh 30.18 in1022.0 mb 0.00 in0.0 mm 0.00 in0.0 mm 0.00 in0.0 mm
07:45 AM 51.5°F10.8°C 50.1°F10.1°C 95% 1.0 mph NNW1.6 kmh NNW 2.1 mph3.4 kmh 30.18 in1022.0 mb 0.00 in0.0 mm 0.00 in0.0 mm 0.00 in0.0 mm
08:00 AM 52.3°F11.3°C 50.9°F10.5°C 95% 1.0 mph NNE1.6 kmh NNE 2.1 mph3.4 kmh 30.19 in1022.4 mb 0.00 in0.0 mm 0.00 in0.0 mm 0.00 in0.0 mm
08:15 AM 54.0°F12.2°C 52.0°F11.1°C 93% 3.0 mph NNW4.8 kmh NNW 3.1 mph5.0 kmh 30.19 in1022.4 mb 0.00 in0.0 mm 0.00 in0.0 mm 0.00 in0.0 mm
08:30 AM 57.4°F14.1°C 53.9°F12.2°C 88% 1.0 mph NNE1.6 kmh NNE 3.1 mph5.0 kmh 30.20 in1022.7 mb 0.00 in0.0 mm 0.00 in0.0 mm 0.00 in0.0 mm
08:45 AM 60.1°F15.6°C 54.3°F12.4°C 81% 5.1 mph NNE8.2 kmh NNE 5.1 mph8.2 kmh 30.20 in1022.7 mb 0.00 in0.0 mm 0.00 in0.0 mm 0.00 in0.0 mm
09:00 AM 62.0°F16.7°C 55.1°F12.8°C 78% 5.1 mph NNE8.2 kmh NNE 5.1 mph8.2 kmh 30.21 in1023.0 mb 0.00 in0.0 mm 0.00 in0.0 mm 0.00 in0.0 mm
09:15 AM 63.1°F17.3°C 54.3°F12.4°C 73% 4.1 mph NNE6.6 kmh NNE 9.1 mph14.6 kmh 30.21 in1023.0 mb 0.00 in0.0 mm 0.00 in0.0 mm 0.00 in0.0 mm
09:30 AM 64.2°F17.9°C 55.0°F12.8°C 72% 2.0 mph NE3.2 kmh NE 8.1 mph13.0 kmh 30.21 in1023.0 mb 0.00 in0.0 mm 0.00 in0.0 mm 0.00 in0.0 mm
09:45 AM 65.8°F18.8°C 54.6°F12.6°C 67% 2.0 mph NNE3.2 kmh NNE 8.1 mph13.0 kmh 30.22 in1023.4 mb 0.00 in0.0 mm 0.00 in0.0 mm 0.00 in0.0 mm
10:00 AM 66.2°F19.0°C 54.6°F12.6°C 66% 3.0 mph NNW4.8 kmh NNW 5.1 mph8.2 kmh 30.22 in1023.4 mb 0.00 in0.0 mm 0.00 in0.0 mm 0.00 in0.0 mm
10:15 AM 66.9°F19.4°C 53.1°F11.7°C 61% 6.1 mph NW9.8 kmh NW 9.1 mph14.6 kmh 30.22 in1023.4 mb 0.00 in0.0 mm 0.00 in0.0 mm 0.00 in0.0 mm
10:30 AM 67.9°F19.9°C 53.1°F11.7°C 59% 4.1 mph NE6.6 kmh NE 11.2 mph18.0 kmh 30.23 in1023.7 mb 0.00 in0.0 mm 0.00 in0.0 mm 0.00 in0.0 mm
10:45 AM 67.2°F19.6°C 52.0°F11.1°C 58% 6.1 mph N9.8 kmh N 12.2 mph19.6 kmh 30.23 in1023.7 mb 0.00 in0.0 mm 0.00 in0.0 mm 0.00 in0.0 mm
11:00 AM 68.6°F20.3°C 52.3°F11.3°C 56% 9.1 mph N14.6 kmh N 12.2 mph19.6 kmh 30.23 in1023.7 mb 0.00 in0.0 mm 0.00 in0.0 mm 0.00 in0.0 mm
11:15 AM 67.9°F19.9°C 51.7°F10.9°C 56% 2.0 mph ENE3.2 kmh ENE 9.1 mph14.6 kmh 30.24 in1024.0 mb 0.00 in0.0 mm 0.00 in0.0 mm 0.00 in0.0 mm
11:30 AM 67.8°F19.9°C 51.1°F10.6°C 55% 2.0 mph NW3.2 kmh NW 13.2 mph21.2 kmh 30.24 in1024.0 mb 0.00 in0.0 mm 0.00 in0.0 mm 0.00 in0.0 mm
11:45 AM 68.3°F20.2°C 51.6°F10.9°C 55% 5.1 mph NNW8.2 kmh NNW 14.2 mph22.9 kmh 30.24 in1024.0 mb 0.00 in0.0 mm 0.00 in0.0 mm 0.00 in0.0 mm
12:00 PM 69.0°F20.6°C 52.2°F11.2°C 55% 8.1 mph N13.0 kmh N 15.2 mph24.5 kmh 30.24 in1024.0 mb 0.00 in0.0 mm 0.00 in0.0 mm 0.00 in0.0 mm
12:15 PM 68.5°F20.3°C 52.7°F11.5°C 57% 8.1 mph NNE13.0 kmh NNE 12.2 mph19.6 kmh 30.24 in1024.0 mb 0.00 in0.0 mm 0.00 in0.0 mm 0.00 in0.0 mm
12:30 PM 69.6°F20.9°C 51.2°F10.7°C 52% 5.1 mph N8.2 kmh N 10.1 mph16.3 kmh 30.24 in1024.0 mb 0.00 in0.0 mm 0.00 in0.0 mm 0.00 in0.0 mm
12:45 PM 70.1°F21.2°C 51.6°F10.9°C 52% 4.1 mph NE6.6 kmh NE 11.2 mph18.0 kmh 30.24 in1024.0 mb 0.00 in0.0 mm 0.00 in0.0 mm 0.00 in0.0 mm
01:00 PM 69.8°F21.0°C 51.4°F10.8°C 52% 10.1 mph N16.3 kmh N 16.2 mph26.1 kmh 30.24 in1024.0 mb 0.00 in0.0 mm 0.00 in0.0 mm 0.00 in0.0 mm
01:15 PM 70.1°F21.2°C 52.7°F11.5°C 54% 8.1 mph NNE13.0 kmh NNE 13.2 mph21.2 kmh 30.24 in1024.0 mb 0.00 in0.0 mm 0.00 in0.0 mm 0.00 in0.0 mm
01:30 PM 69.9°F21.1°C 51.4°F10.8°C 52% 9.1 mph NE14.6 kmh NE 13.2 mph21.2 kmh 30.23 in1023.7 mb 0.00 in0.0 mm 0.00 in0.0 mm 0.00 in0.0 mm
01:45 PM 70.6°F21.4°C 51.0°F10.6°C 50% 5.1 mph NNW8.2 kmh NNW 12.2 mph19.6 kmh 30.23 in1023.7 mb 0.00 in0.0 mm 0.00 in0.0 mm 0.00 in0.0 mm
02:00 PM 70.4°F21.3°C 50.9°F10.5°C 50% 4.1 mph N6.6 kmh N 16.2 mph26.1 kmh 30.23 in1023.7 mb 0.00 in0.0 mm 0.00 in0.0 mm 0.00 in0.0 mm
02:15 PM 70.4°F21.3°C 51.4°F10.8°C 51% 5.1 mph E8.2 kmh E 11.2 mph18.0 kmh 30.23 in1023.7 mb 0.00 in0.0 mm 0.00 in0.0 mm 0.00 in0.0 mm
02:30 PM 70.1°F21.2°C 51.1°F10.6°C 51% 6.1 mph N9.8 kmh N 9.1 mph14.6 kmh 30.23 in1023.7 mb 0.00 in0.0 mm 0.00 in0.0 mm 0.00 in0.0 mm
02:45 PM 71.1°F21.7°C 50.4°F10.2°C 48% 2.0 mph ENE3.2 kmh ENE 10.1 mph16.3 kmh 30.23 in1023.7 mb 0.00 in0.0 mm 0.00 in0.0 mm 0.00 in0.0 mm
03:00 PM 70.9°F21.6°C 50.8°F10.4°C 49% 12.1 mph NNE19.5 kmh NNE 12.2 mph19.6 kmh 30.23 in1023.7 mb 0.00 in0.0 mm 0.00 in0.0 mm 0.00 in0.0 mm
03:15 PM 69.8°F21.0°C 49.8°F9.9°C 49% 8.1 mph N13.0 kmh N 13.2 mph21.2 kmh 30.23 in1023.7 mb 0.00 in0.0 mm 0.00 in0.0 mm 0.00 in0.0 mm
03:30 PM 69.4°F20.8°C 49.4°F9.7°C 49% 6.1 mph NW9.8 kmh NW 10.1 mph16.3 kmh 30.23 in1023.7 mb 0.00 in0.0 mm 0.00 in0.0 mm 0.00 in0.0 mm
03:45 PM 69.4°F20.8°C 49.4°F9.7°C 49% 11.1 mph N17.9 kmh N 13.2 mph21.2 kmh 30.23 in1023.7 mb 0.00 in0.0 mm 0.00 in0.0 mm 0.00 in0.0 mm
04:00 PM 68.6°F20.3°C 49.3°F9.6°C 50% 2.0 mph NW3.2 kmh NW 11.2 mph18.0 kmh 30.23 in1023.7 mb 0.00 in0.0 mm 0.00 in0.0 mm 0.00 in0.0 mm
04:15 PM 68.1°F20.1°C 48.8°F9.3°C 50% 4.1 mph NW6.6 kmh NW 11.2 mph18.0 kmh 30.23 in1023.7 mb 0.00 in0.0 mm 0.00 in0.0 mm 0.00 in0.0 mm
04:30 PM 67.9°F19.9°C 49.7°F9.8°C 52% 2.0 mph N3.2 kmh N 11.2 mph18.0 kmh 30.23 in1023.7 mb 0.00 in0.0 mm 0.00 in0.0 mm 0.00 in0.0 mm
04:45 PM 67.0°F19.4°C 48.3°F9.1°C 51% 16.0 mph NNE25.7 kmh NNE 20.2 mph32.5 kmh 30.24 in1024.0 mb 0.00 in0.0 mm 0.00 in0.0 mm 0.00 in0.0 mm
05:00 PM 66.9°F19.4°C 48.8°F9.3°C 52% 2.0 mph N3.2 kmh N 9.1 mph14.6 kmh 30.24 in1024.0 mb 0.00 in0.0 mm 0.00 in0.0 mm 0.00 in0.0 mm
05:15 PM 65.9°F18.8°C 48.3°F9.1°C 53% 1.0 mph WSW1.6 kmh WSW 4.1 mph6.6 kmh 30.25 in1024.4 mb 0.00 in0.0 mm 0.00 in0.0 mm 0.00 in0.0 mm
05:30 PM 65.8°F18.8°C 47.7°F8.7°C 52% 7.1 mph NW11.4 kmh NW 7.1 mph11.4 kmh 30.25 in1024.4 mb 0.00 in0.0 mm 0.00 in0.0 mm 0.00 in0.0 mm
05:45 PM 65.2°F18.4°C 47.2°F8.4°C 52% 8.1 mph NNW13.0 kmh NNW 12.2 mph19.6 kmh 30.25 in1024.4 mb 0.00 in0.0 mm 0.00 in0.0 mm 0.00 in0.0 mm
06:00 PM 64.4°F18.0°C 47.4°F8.6°C 54% 5.1 mph N8.2 kmh N 12.2 mph19.6 kmh 30.26 in1024.7 mb 0.00 in0.0 mm 0.00 in0.0 mm 0.00 in0.0 mm
06:15 PM 64.0°F17.8°C 47.5°F8.6°C 55% 2.0 mph NNE3.2 kmh NNE 4.1 mph6.6 kmh 30.26 in1024.7 mb 0.00 in0.0 mm 0.00 in0.0 mm 0.00 in0.0 mm
06:30 PM 63.4°F17.4°C 47.5°F8.6°C 56% 3.0 mph N4.8 kmh N 6.1 mph9.8 kmh 30.26 in1024.7 mb 0.00 in0.0 mm 0.00 in0.0 mm 0.00 in0.0 mm
06:45 PM 62.7°F17.1°C 47.7°F8.7°C 58% 2.0 mph N3.2 kmh N 7.1 mph11.4 kmh 30.27 in1025.1 mb 0.00 in0.0 mm 0.00 in0.0 mm 0.00 in0.0 mm
07:00 PM 62.0°F16.7°C 47.1°F8.4°C 58% 2.0 mph N3.2 kmh N 4.1 mph6.6 kmh 30.27 in1025.1 mb 0.00 in0.0 mm 0.00 in0.0 mm 0.00 in0.0 mm
07:15 PM 61.2°F16.2°C 47.2°F8.4°C 60% 2.0 mph NE3.2 kmh NE 5.1 mph8.2 kmh 30.27 in1025.1 mb 0.00 in0.0 mm 0.00 in0.0 mm 0.00 in0.0 mm
07:30 PM 60.2°F15.7°C 47.2°F8.4°C 62% 0.1 mph N0.2 kmh N 4.1 mph6.6 kmh 30.28 in1025.4 mb 0.00 in0.0 mm 0.00 in0.0 mm 0.00 in0.0 mm
07:45 PM 59.2°F15.1°C 47.0°F8.3°C 64% 1.0 mph N1.6 kmh N 4.1 mph6.6 kmh 30.28 in1025.4 mb 0.00 in0.0 mm 0.00 in0.0 mm 0.00 in0.0 mm
08:00 PM 59.2°F15.1°C 46.6°F8.1°C 63% 5.1 mph NW8.2 kmh NW 10.1 mph16.3 kmh 30.28 in1025.4 mb 0.00 in0.0 mm 0.00 in0.0 mm 0.00 in0.0 mm
08:15 PM 59.3°F15.2°C 46.3°F7.9°C 62% 3.0 mph N4.8 kmh N 9.1 mph14.6 kmh 30.29 in1025.7 mb 0.00 in0.0 mm 0.00 in0.0 mm 0.00 in0.0 mm
08:30 PM 59.0°F15.0°C 46.0°F7.8°C 62% 2.0 mph NNE3.2 kmh NNE 5.1 mph8.2 kmh 30.30 in1026.1 mb 0.00 in0.0 mm 0.00 in0.0 mm 0.00 in0.0 mm
08:45 PM 58.8°F14.9°C 45.4°F7.4°C 61% 4.1 mph NNE6.6 kmh NNE 4.1 mph6.6 kmh 30.30 in1026.1 mb 0.00 in0.0 mm 0.00 in0.0 mm 0.00 in0.0 mm
09:00 PM 58.2°F14.6°C 45.7°F7.6°C 63% 3.0 mph NE4.8 kmh NE 8.1 mph13.0 kmh 30.31 in1026.4 mb 0.00 in0.0 mm 0.00 in0.0 mm 0.00 in0.0 mm
09:15 PM 58.0°F14.4°C 45.5°F7.5°C 63% 4.1 mph NE6.6 kmh NE 6.1 mph9.8 kmh 30.31 in1026.4 mb 0.00 in0.0 mm 0.00 in0.0 mm 0.00 in0.0 mm
09:30 PM 57.7°F14.3°C 45.2°F7.3°C 63% 4.1 mph N6.6 kmh N 8.1 mph13.0 kmh 30.31 in1026.4 mb 0.00 in0.0 mm 0.00 in0.0 mm 0.00 in0.0 mm
09:45 PM 57.7°F14.3°C 44.8°F7.1°C 62% 4.1 mph NW6.6 kmh NW 7.1 mph11.4 kmh 30.32 in1026.8 mb 0.00 in0.0 mm 0.00 in0.0 mm 0.00 in0.0 mm
10:00 PM 57.4°F14.1°C 44.5°F6.9°C 62% 3.0 mph NE4.8 kmh NE 4.1 mph6.6 kmh 30.33 in1027.1 mb 0.00 in0.0 mm 0.00 in0.0 mm 0.00 in0.0 mm
10:15 PM 57.1°F13.9°C 44.6°F7.0°C 63% 4.1 mph NE6.6 kmh NE 8.1 mph13.0 kmh 30.32 in1026.8 mb 0.00 in0.0 mm 0.00 in0.0 mm 0.00 in0.0 mm
10:30 PM 56.6°F13.7°C 45.0°F7.2°C 65% 1.0 mph N1.6 kmh N 7.1 mph11.4 kmh 30.32 in1026.8 mb 0.00 in0.0 mm 0.00 in0.0 mm 0.00 in0.0 mm
10:45 PM 56.1°F13.4°C 44.9°F7.2°C 66% 3.0 mph NNE4.8 kmh NNE 5.1 mph8.2 kmh 30.33 in1027.1 mb 0.00 in0.0 mm 0.00 in0.0 mm 0.00 in0.0 mm
11:00 PM 55.8°F13.2°C 44.6°F7.0°C 66% 3.0 mph NNE4.8 kmh NNE 7.1 mph11.4 kmh 30.33 in1027.1 mb 0.00 in0.0 mm 0.00 in0.0 mm 0.00 in0.0 mm
11:15 PM 55.6°F13.1°C 44.8°F7.1°C 67% 3.0 mph N4.8 kmh N 10.1 mph16.3 kmh 30.33 in1027.1 mb 0.00 in0.0 mm 0.00 in0.0 mm 0.00 in0.0 mm
11:30 PM 55.1°F12.8°C 45.1°F7.3°C 69% 4.1 mph N6.6 kmh N 6.1 mph9.8 kmh 30.33 in1027.1 mb 0.00 in0.0 mm 0.00 in0.0 mm 0.00 in0.0 mm
11:45 PM 54.8°F12.7°C 45.2°F7.3°C 70% 6.1 mph NE9.8 kmh NE 8.1 mph13.0 kmh 30.33 in1027.1 mb 0.00 in0.0 mm 0.00 in0.0 mm 0.00 in0.0 mm